Aviation Digital Data Service (ADDS)

Output produced by TAFs form (0007 UTC 26 June 2017)
found at http://aviationweather.gov/adds/tafs/
 
KTUS 252331Z 2600/2624 30010KT P6SM FEW090 SCT110 BKN180 
     FM260200 24010KT P6SM SCT120 BKN180 
     FM260700 15006KT P6SM FEW120 SCT180 
     FM261800 33010G16KT P6SM FEW120 SCT180